Time;durP1;ratioP1;P1;durP2;ratioP2;P2;SDS_P1;SDS_P2;PMS_P1;PMS_P2;Temp;Humidity;BMP_temperature;BMP_pressure;BME280_temperature;BME280_humidity;BME280_pressure;Samples;Min_cycle;Max_cycle;Signal;HPM_P1;HPM_P2
2021/12/16 00:01:52;;;;;;;13.17;10.90;;;10.00;79.80;10.20;97975.00;;;;5039013;28;20219;-83
2021/12/16 00:07:22;;;;;;;11.70;10.50;;;10.00;79.70;10.20;97970.00;;;;5051758;28;20220;-82
2021/12/16 00:09:58;;;;;;;15.83;11.37;;;9.90;79.60;10.20;97965.00;;;;5054131;28;20204;-83
2021/12/16 00:32:03;;;;;;;10.80;9.37;;;9.90;80.10;10.10;97961.00;;;;5052126;28;20192;-82
2021/12/16 00:34:33;;;;;;;11.17;9.53;;;9.90;79.40;10.10;97966.00;;;;5051223;28;20228;-82
2021/12/16 00:37:02;;;;;;;12.83;10.00;;;9.90;79.30;10.10;97948.00;;;;5038114;28;20217;-82
2021/12/16 00:39:35;;;;;;;12.60;9.93;;;9.90;79.20;10.10;97963.00;;;;5045775;28;20189;-82
2021/12/16 00:42:10;;;;;;;13.17;10.90;;;9.90;79.30;10.10;97960.00;;;;5067300;28;20588;-82
2021/12/16 00:47:50;;;;;;;12.67;9.77;;;9.90;79.20;10.10;97957.00;;;;5154570;27;20555;-83
2021/12/16 00:54:07;;;;;;;12.70;10.13;;;9.90;79.30;10.10;97963.00;;;;5129844;27;20190;-82
2021/12/16 00:56:01;;;;;;;15.43;11.07;;;9.90;79.20;10.10;97972.00;;;;5119540;27;20212;-83
2021/12/16 00:58:37;;;;;;;12.80;10.73;;;9.90;79.30;10.10;97975.00;;;;5116717;27;20445;-83
2021/12/16 01:01:15;;;;;;;13.07;9.53;;;9.90;79.20;10.10;97976.00;;;;5112241;28;20202;-82
2021/12/16 01:03:50;;;;;;;12.70;9.37;;;9.90;79.10;10.10;97978.00;;;;5112990;27;20610;-83
2021/12/16 01:06:36;;;;;;;12.33;9.83;;;9.90;79.10;10.00;97979.00;;;;5118755;28;20221;-83
2021/12/16 01:09:36;;;;;;;13.27;10.33;;;9.90;79.10;10.00;97974.00;;;;5117336;27;20302;-83
2021/12/16 01:34:22;;;;;;;13.83;10.47;;;9.80;79.50;10.00;97972.00;;;;5134819;27;20205;-83
2021/12/16 01:37:21;;;;;;;11.63;10.40;;;9.80;79.60;10.10;97975.00;;;;5134126;27;20261;-83
2021/12/16 01:39:59;;;;;;;12.07;10.23;;;9.90;79.60;10.10;97975.00;;;;5114158;28;20198;-83
2021/12/16 01:45:45;;;;;;;18.00;10.23;;;9.90;79.30;10.00;97969.00;;;;5110375;27;20658;-83
2021/12/16 01:50:59;;;;;;;14.50;9.33;;;9.90;79.20;10.00;97968.00;;;;5088857;28;20720;-82
2021/12/16 01:53:52;;;;;;;9.90;7.90;;;9.80;79.10;10.00;97961.00;;;;5112054;27;20199;-83
2021/12/16 01:56:34;;;;;;;10.13;8.50;;;9.80;79.10;9.90;97969.00;;;;5145346;27;20717;-82
2021/12/16 01:59:02;;;;;;;13.47;8.70;;;9.80;78.90;9.90;97966.00;;;;5105718;27;20218;-82
2021/12/16 02:01:33;;;;;;;9.40;8.40;;;9.70;79.00;9.90;97967.00;;;;5106977;28;20201;-82
2021/12/16 02:04:13;;;;;;;9.40;8.13;;;9.70;79.10;9.90;97953.00;;;;5119443;28;20210;-82
2021/12/16 02:06:59;;;;;;;10.10;8.77;;;9.80;79.20;9.90;97963.00;;;;5109404;28;20223;-82
2021/12/16 02:09:35;;;;;;;10.83;8.40;;;9.80;79.00;9.90;97970.00;;;;5098964;28;20223;-82
2021/12/16 02:12:12;;;;;;;8.30;7.43;;;9.70;78.80;9.80;97971.00;;;;5110722;28;20206;-82
2021/12/16 02:28:51;;;;;;;12.10;9.70;;;9.70;79.00;9.90;97970.00;;;;5097663;28;20252;-82
2021/12/16 02:31:43;;;;;;;11.97;10.47;;;9.70;79.00;9.90;97964.00;;;;5112166;28;20585;-82
2021/12/16 02:34:28;;;;;;;12.53;10.13;;;9.70;79.00;9.90;97958.00;;;;5112482;28;20215;-82
2021/12/16 02:36:57;;;;;;;14.20;10.37;;;9.70;79.00;9.90;97955.00;;;;5109854;28;20226;-82
2021/12/16 02:39:30;;;;;;;13.20;11.00;;;9.80;79.00;9.90;97955.00;;;;5111594;28;20267;-83
2021/12/16 02:42:04;;;;;;;13.60;11.23;;;9.70;78.90;9.80;97964.00;;;;5095114;28;20191;-82
2021/12/16 02:44:41;;;;;;;13.33;10.77;;;9.70;79.50;9.80;97963.00;;;;5114642;28;20631;-83
2021/12/16 02:49:58;;;;;;;17.47;11.43;;;9.70;78.90;9.80;97957.00;;;;5114273;28;20666;-83
2021/12/16 02:52:29;;;;;;;15.00;11.27;;;9.70;79.10;9.80;97959.00;;;;5115770;28;20558;-83
2021/12/16 02:55:00;;;;;;;15.40;10.83;;;9.70;79.10;9.80;97963.00;;;;5113518;27;20661;-83
2021/12/16 02:57:27;;;;;;;13.50;10.43;;;9.70;79.20;9.80;97974.00;;;;5110146;27;20214;-82
2021/12/16 02:59:55;;;;;;;13.93;11.20;;;9.70;79.40;9.80;97974.00;;;;5114954;28;20297;-82
2021/12/16 03:02:25;;;;;;;14.10;11.30;;;9.70;79.30;9.80;97975.00;;;;5103171;27;20286;-82
2021/12/16 03:04:55;;;;;;;16.77;11.07;;;9.70;79.30;9.80;97975.00;;;;5094149;28;20207;-83
2021/12/16 03:07:23;;;;;;;14.27;11.50;;;9.70;79.30;9.80;97978.00;;;;5112408;28;20306;-82
2021/12/16 03:12:58;;;;;;;15.27;11.57;;;9.70;79.40;9.80;97978.00;;;;5115261;28;20279;-83
2021/12/16 03:15:54;;;;;;;15.47;11.87;;;9.70;79.30;9.80;97967.00;;;;5111768;27;20519;-82
2021/12/16 03:18:34;;;;;;;16.13;11.40;;;9.70;79.60;9.80;97974.00;;;;5113356;28;20233;-82
2021/12/16 03:21:11;;;;;;;11.17;9.87;;;9.70;79.40;9.70;97988.00;;;;5098841;28;20688;-82
2021/12/16 03:23:53;;;;;;;15.87;11.30;;;9.60;79.40;9.70;97980.00;;;;5094085;28;20600;-82
2021/12/16 03:32:33;;;;;;;14.10;11.13;;;9.60;79.60;9.70;97976.00;;;;5129914;27;20572;-82
2021/12/16 03:35:25;;;;;;;13.87;10.60;;;9.60;79.50;9.70;97988.00;;;;5110657;28;20203;-83
2021/12/16 03:37:55;;;;;;;13.10;10.37;;;9.60;79.40;9.60;97998.00;;;;5098298;28;20226;-83
2021/12/16 03:40:23;;;;;;;12.10;10.23;;;9.50;79.10;9.50;97996.00;;;;5111671;28;20194;-83
2021/12/16 03:42:53;;;;;;;13.17;10.33;;;9.50;79.20;9.50;97987.00;;;;5111028;28;20606;-83
2021/12/16 03:48:21;;;;;;;21.70;10.40;;;9.50;79.40;9.50;97997.00;;;;5069814;28;20305;-83
2021/12/16 03:50:48;;;;;;;12.57;9.67;;;9.50;79.40;9.50;97999.00;;;;5095941;28;20215;-82
2021/12/16 03:53:17;;;;;;;12.37;9.37;;;9.50;79.50;9.50;98006.00;;;;5103621;28;20285;-82
2021/12/16 03:55:45;;;;;;;18.40;11.13;;;9.40;79.40;9.40;97999.00;;;;5109950;28;20587;-83
2021/12/16 03:58:19;;;;;;;10.97;9.23;;;9.40;79.50;9.40;98005.00;;;;5110521;28;20245;-83
2021/12/16 04:00:50;;;;;;;10.93;8.70;;;9.40;79.70;9.40;98014.00;;;;5110000;28;20198;-82
2021/12/16 04:03:20;;;;;;;14.20;8.17;;;9.40;79.60;9.40;98015.00;;;;5110654;28;20277;-82
2021/12/16 04:05:48;;;;;;;9.23;7.30;;;9.40;79.60;9.40;98008.00;;;;5109747;28;20297;-82
2021/12/16 04:08:16;;;;;;;12.63;8.03;;;9.40;79.70;9.50;98012.00;;;;5110705;28;20297;-82
2021/12/16 04:10:53;;;;;;;9.13;8.17;;;9.30;79.80;9.50;98017.00;;;;5110814;28;20214;-83
2021/12/16 04:13:23;;;;;;;13.77;8.47;;;9.20;79.60;9.40;98010.00;;;;5110939;28;20206;-83
2021/12/16 04:15:53;;;;;;;18.87;9.30;;;9.30;79.70;9.40;98006.00;;;;5110767;28;20254;-82
2021/12/16 04:18:22;;;;;;;11.17;8.80;;;9.30;79.80;9.50;98009.00;;;;5110063;28;20354;-82
2021/12/16 04:20:50;;;;;;;23.53;11.17;;;9.30;79.90;9.50;98001.00;;;;5110868;28;20195;-82
2021/12/16 04:23:18;;;;;;;12.53;9.90;;;9.30;80.00;9.50;97999.00;;;;5110307;28;20194;-83
2021/12/16 04:25:49;;;;;;;29.67;10.10;;;9.30;79.90;9.50;98008.00;;;;5109820;28;20858;-83
2021/12/16 04:28:24;;;;;;;14.93;9.50;;;9.30;80.00;9.50;98011.00;;;;5105612;28;20656;-83
2021/12/16 04:30:52;;;;;;;16.97;9.77;;;9.30;80.10;9.50;98016.00;;;;5101905;28;20320;-83
2021/12/16 04:33:21;;;;;;;11.93;9.60;;;9.30;80.10;9.50;98015.00;;;;5105516;28;20195;-83
2021/12/16 04:35:48;;;;;;;12.80;10.23;;;9.30;80.20;9.60;98024.00;;;;5108307;28;20290;-82
2021/12/16 04:38:17;;;;;;;19.70;9.67;;;9.30;80.50;9.60;98025.00;;;;5103369;28;20309;-83
2021/12/16 04:40:46;;;;;;;13.87;9.67;;;9.30;80.50;9.60;98015.00;;;;5105588;28;20547;-82
2021/12/16 04:43:19;;;;;;;13.93;9.77;;;9.30;80.50;9.60;98022.00;;;;5095231;28;20191;-82
2021/12/16 04:45:48;;;;;;;15.00;9.43;;;9.30;80.30;9.60;98015.00;;;;5091568;28;20196;-83
2021/12/16 04:48:15;;;;;;;16.87;8.70;;;9.40;80.50;9.60;98014.00;;;;5112335;22;20314;-81
2021/12/16 04:50:44;;;;;;;12.20;9.37;;;9.30;80.40;9.60;98021.00;;;;5096786;28;20917;-82
2021/12/16 04:53:11;;;;;;;12.90;9.37;;;9.30;80.40;9.60;98016.00;;;;5084333;28;20206;-81
2021/12/16 04:55:38;;;;;;;18.93;10.00;;;9.30;80.40;9.60;98026.00;;;;5077371;28;20261;-82
2021/12/16 04:58:05;;;;;;;14.17;9.97;;;9.30;80.30;9.60;98028.00;;;;5082242;28;20211;-81
2021/12/16 05:00:32;;;;;;;12.80;9.50;;;9.30;80.40;9.60;98027.00;;;;5095476;28;20306;-82
2021/12/16 05:03:00;;;;;;;11.30;8.97;;;9.30;80.20;9.50;98026.00;;;;5092665;28;20198;-81
2021/12/16 05:05:27;;;;;;;10.47;9.03;;;9.30;80.30;9.50;98018.00;;;;5093757;28;20282;-82
2021/12/16 05:07:56;;;;;;;22.23;9.73;;;9.30;80.30;9.50;98027.00;;;;5092122;28;20585;-82
2021/12/16 05:10:23;;;;;;;12.27;9.30;;;9.20;80.40;9.50;98029.00;;;;5097465;28;20191;-82
2021/12/16 05:12:54;;;;;;;13.97;9.53;;;9.20;80.50;9.50;98031.00;;;;5096858;28;20623;-82
2021/12/16 05:15:27;;;;;;;10.97;8.53;;;9.20;80.50;9.50;98041.00;;;;5096698;28;20195;-82
2021/12/16 05:17:56;;;;;;;11.67;8.77;;;9.20;80.60;9.50;98022.00;;;;5091009;28;20222;-82
2021/12/16 05:20:30;;;;;;;13.63;8.80;;;9.20;81.40;9.50;98032.00;;;;5086405;28;20369;-81
2021/12/16 05:25:59;;;;;;;13.87;9.23;;;9.20;80.50;9.50;98041.00;;;;5078863;28;20207;-81
2021/12/16 05:28:27;;;;;;;12.70;9.50;;;9.20;80.50;9.50;98041.00;;;;5075770;28;20215;-81
2021/12/16 05:30:55;;;;;;;11.93;8.73;;;9.20;80.60;9.50;98045.00;;;;5076126;28;20222;-82
2021/12/16 05:33:24;;;;;;;17.70;9.43;;;9.20;80.50;9.50;98052.00;;;;5090054;28;20194;-81
2021/12/16 05:35:53;;;;;;;14.33;8.73;;;9.20;80.50;9.50;98049.00;;;;5095513;28;20252;-81
2021/12/16 05:38:22;;;;;;;11.80;8.77;;;9.20;80.40;9.50;98049.00;;;;5084263;28;20212;-81
2021/12/16 05:40:49;;;;;;;12.57;8.53;;;9.20;80.50;9.50;98055.00;;;;5077857;28;20291;-81
2021/12/16 05:43:22;;;;;;;12.20;9.30;;;9.20;80.50;9.50;98055.00;;;;5097457;28;20256;-81
2021/12/16 05:45:51;;;;;;;12.73;9.60;;;9.20;81.20;9.50;98060.00;;;;5093483;28;20191;-81
2021/12/16 05:48:25;;;;;;;12.83;9.00;;;9.20;80.60;9.50;98067.00;;;;5074823;28;20230;-82
2021/12/16 05:50:55;;;;;;;15.27;9.00;;;9.20;81.20;9.40;98068.00;;;;5073925;28;20216;-82
2021/12/16 05:53:24;;;;;;;14.00;9.10;;;9.20;80.50;9.50;98064.00;;;;5088025;28;20203;-82
2021/12/16 05:55:52;;;;;;;13.60;9.13;;;9.20;80.40;9.40;98066.00;;;;5078001;28;20206;-81
2021/12/16 05:58:21;;;;;;;12.43;9.13;;;9.20;80.40;9.40;98064.00;;;;5075683;28;20303;-83
2021/12/16 06:00:55;;;;;;;11.97;8.83;;;9.20;80.30;9.40;98055.00;;;;5081575;28;20597;-81
2021/12/16 06:03:23;;;;;;;11.63;9.03;;;9.20;80.30;9.40;98065.00;;;;5077140;28;20195;-81
2021/12/16 06:05:52;;;;;;;12.17;9.00;;;9.20;80.00;9.30;98067.00;;;;5079906;28;20199;-81
2021/12/16 06:08:20;;;;;;;13.10;8.80;;;9.20;79.90;9.30;98074.00;;;;5092335;28;20218;-81
2021/12/16 06:13:58;;;;;;;10.63;8.73;;;9.10;80.10;9.30;98071.00;;;;5095139;28;20253;-81
2021/12/16 06:27:35;;;;;;;19.90;8.77;;;9.10;80.30;9.30;98087.00;;;;5095789;28;20263;-81
2021/12/16 06:30:05;;;;;;;16.33;8.97;;;9.10;80.30;9.30;98088.00;;;;5078181;28;20238;-81
2021/12/16 06:32:32;;;;;;;13.47;8.80;;;9.10;80.40;9.40;98093.00;;;;5075774;28;20222;-81
2021/12/16 06:35:00;;;;;;;16.67;8.90;;;9.20;80.50;9.40;98091.00;;;;5074966;28;20200;-81
2021/12/16 06:37:27;;;;;;;12.30;8.23;;;9.10;80.50;9.40;98097.00;;;;5082788;28;20784;-81
2021/12/16 06:39:54;;;;;;;11.83;8.40;;;9.20;80.50;9.40;98102.00;;;;5076187;28;20222;-81
2021/12/16 06:42:23;;;;;;;11.30;8.80;;;9.20;80.30;9.40;98096.00;;;;5081403;28;20665;-81
2021/12/16 06:44:57;;;;;;;11.23;7.97;;;9.20;80.20;9.40;98111.00;;;;5075267;28;20249;-81
2021/12/16 06:47:32;;;;;;;11.47;8.57;;;9.20;80.30;9.40;98107.00;;;;5085694;28;20214;-81
2021/12/16 06:49:59;;;;;;;12.67;8.43;;;9.20;80.30;9.40;98114.00;;;;5078424;28;20192;-81
2021/12/16 06:52:32;;;;;;;10.37;7.90;;;9.20;80.20;9.50;98115.00;;;;5085786;28;20234;-81
2021/12/16 06:55:09;;;;;;;10.50;7.77;;;9.20;80.20;9.50;98109.00;;;;5076091;28;20192;-81
2021/12/16 06:57:43;;;;;;;9.33;7.40;;;9.30;80.20;9.50;98114.00;;;;5084567;28;20498;-82
2021/12/16 07:00:22;;;;;;;11.57;7.70;;;9.30;80.70;9.40;98118.00;;;;5091851;28;20199;-81
2021/12/16 07:02:58;;;;;;;10.23;7.80;;;9.30;80.00;9.50;98119.00;;;;5091901;28;20213;-81
2021/12/16 07:05:32;;;;;;;11.10;7.73;;;9.30;80.00;9.40;98121.00;;;;5104128;28;20199;-81
2021/12/16 07:08:02;;;;;;;20.83;8.53;;;9.30;80.10;9.50;98125.00;;;;5085096;28;20223;-85
2021/12/16 07:10:30;;;;;;;14.57;8.07;;;9.20;80.10;9.50;98123.00;;;;5086470;28;20541;-85
2021/12/16 07:13:06;;;;;;;12.17;8.37;;;9.20;80.30;9.50;98135.00;;;;5087352;28;20215;-85
2021/12/16 07:15:37;;;;;;;11.10;8.43;;;9.20;80.40;9.60;98133.00;;;;5084275;28;20270;-84
2021/12/16 07:18:05;;;;;;;11.67;8.77;;;9.30;80.40;9.60;98143.00;;;;5095154;28;20745;-84
2021/12/16 07:20:35;;;;;;;17.87;8.47;;;9.30;80.40;9.60;98140.00;;;;5093104;28;20191;-84
2021/12/16 07:23:05;;;;;;;14.93;8.37;;;9.30;80.40;9.70;98142.00;;;;5082833;28;20626;-85
2021/12/16 07:25:33;;;;;;;11.07;8.33;;;9.30;80.50;9.70;98143.00;;;;5090523;28;20289;-83
2021/12/16 07:28:03;;;;;;;10.67;7.30;;;9.30;80.40;9.70;98142.00;;;;5090696;28;20272;-86
2021/12/16 07:30:32;;;;;;;12.20;7.60;;;9.30;80.60;9.70;98151.00;;;;5082551;28;20200;-85
2021/12/16 07:33:00;;;;;;;10.63;7.30;;;9.30;80.50;9.70;98143.00;;;;5072855;28;20719;-84
2021/12/16 07:35:29;;;;;;;15.03;8.13;;;9.40;80.60;9.70;98148.00;;;;5077553;28;20223;-84
2021/12/16 07:37:57;;;;;;;11.80;7.57;;;9.40;80.60;9.80;98150.00;;;;5093967;28;20231;-84
2021/12/16 07:40:27;;;;;;;9.10;7.00;;;9.40;80.50;9.80;98142.00;;;;5078446;28;20568;-84
2021/12/16 07:43:11;;;;;;;9.03;7.17;;;9.50;81.20;9.70;98147.00;;;;5081959;28;20594;-84
2021/12/16 07:45:42;;;;;;;9.73;5.97;;;9.40;80.40;9.80;98144.00;;;;5083567;28;20225;-84
2021/12/16 07:48:13;;;;;;;9.90;7.07;;;9.40;80.60;9.80;98148.00;;;;5082259;28;20288;-84
2021/12/16 07:50:44;;;;;;;9.60;7.83;;;9.40;80.60;9.80;98145.00;;;;5078222;28;20274;-84
2021/12/16 07:53:11;;;;;;;10.10;7.37;;;9.40;80.70;9.80;98143.00;;;;5085983;28;20699;-84
2021/12/16 07:55:41;;;;;;;10.27;7.17;;;9.40;80.70;9.90;98154.00;;;;5077326;28;20326;-84
2021/12/16 07:58:10;;;;;;;13.00;7.73;;;9.40;80.50;9.80;98155.00;;;;5083142;28;20310;-84
2021/12/16 08:00:39;;;;;;;9.70;7.37;;;9.50;80.40;9.80;98163.00;;;;5078221;28;20196;-84
2021/12/16 08:03:12;;;;;;;7.70;6.67;;;9.50;80.50;9.90;98165.00;;;;5082687;28;20214;-85
2021/12/16 08:05:47;;;;;;;7.67;6.43;;;9.50;80.40;9.90;98170.00;;;;5081833;28;20196;-84
2021/12/16 08:08:16;;;;;;;9.17;6.37;;;9.50;80.20;9.90;98169.00;;;;5079698;28;20251;-85
2021/12/16 08:10:43;;;;;;;9.60;6.30;;;9.60;80.20;9.90;98169.00;;;;5081968;28;20275;-84
2021/12/16 08:13:10;;;;;;;9.03;6.90;;;9.60;80.20;10.00;98167.00;;;;5091077;28;20306;-85
2021/12/16 08:15:38;;;;;;;8.87;6.93;;;9.60;80.20;10.00;98163.00;;;;5091731;28;20802;-86
2021/12/16 08:18:05;;;;;;;8.20;6.17;;;9.60;79.90;10.00;98169.00;;;;5089750;28;20655;-86
2021/12/16 08:20:34;;;;;;;10.23;7.27;;;9.70;79.80;10.00;98169.00;;;;5081426;28;20220;-86
2021/12/16 08:23:02;;;;;;;13.87;7.30;;;9.70;79.90;10.10;98171.00;;;;5088461;28;20257;-85
2021/12/16 08:25:32;;;;;;;12.10;6.97;;;9.70;80.60;10.10;98178.00;;;;5080147;28;20239;-85
2021/12/16 08:28:03;;;;;;;7.43;6.00;;;9.70;79.90;10.20;98173.00;;;;5076389;28;20299;-85
2021/12/16 08:30:34;;;;;;;9.43;7.40;;;9.70;80.10;10.20;98178.00;;;;5085139;28;20201;-87
2021/12/16 08:33:05;;;;;;;10.30;6.93;;;9.80;80.20;10.20;98184.00;;;;5092098;28;20656;-86
2021/12/16 08:35:36;;;;;;;8.43;6.90;;;9.80;80.30;10.30;98200.00;;;;5078212;28;20551;-85
2021/12/16 08:38:04;;;;;;;10.87;7.00;;;9.80;80.20;10.30;98198.00;;;;5091162;28;20397;-85
2021/12/16 08:40:31;;;;;;;9.27;6.53;;;9.90;80.20;10.40;98198.00;;;;5093346;28;20191;-86
2021/12/16 08:42:59;;;;;;;7.83;6.53;;;9.90;80.00;10.40;98202.00;;;;5095790;28;20199;-86
2021/12/16 08:45:32;;;;;;;7.20;6.30;;;10.00;79.90;10.40;98210.00;;;;5088999;28;20259;-87
2021/12/16 08:48:05;;;;;;;12.63;6.60;;;10.00;80.30;10.40;98203.00;;;;5093960;28;20223;-85
2021/12/16 08:50:40;;;;;;;11.33;5.90;;;10.10;79.70;10.40;98213.00;;;;5077616;28;20259;-85
2021/12/16 08:53:10;;;;;;;8.40;5.33;;;10.10;79.50;10.40;98211.00;;;;5075701;28;20255;-85
2021/12/16 08:55:41;;;;;;;5.70;5.10;;;10.10;79.60;10.40;98218.00;;;;5090054;28;20260;-86
2021/12/16 08:58:09;;;;;;;8.23;5.47;;;10.10;80.30;10.40;98208.00;;;;5095211;28;20278;-85
2021/12/16 09:00:41;;;;;;;8.80;5.60;;;10.10;79.70;10.50;98215.00;;;;5086009;28;20220;-86
2021/12/16 09:03:12;;;;;;;6.83;4.97;;;10.10;79.70;10.50;98212.00;;;;5073387;28;20282;-86
2021/12/16 09:05:44;;;;;;;9.27;5.13;;;10.10;79.70;10.50;98210.00;;;;5083186;28;20562;-85
2021/12/16 09:08:12;;;;;;;9.17;4.70;;;10.10;79.60;10.50;98212.00;;;;5076156;28;20220;-85
2021/12/16 09:10:39;;;;;;;5.07;4.57;;;10.20;80.40;10.60;98221.00;;;;5091767;28;20713;-85
2021/12/16 09:13:13;;;;;;;5.97;5.17;;;10.10;79.90;10.60;98218.00;;;;5091992;28;20220;-86
2021/12/16 09:15:46;;;;;;;5.13;4.47;;;10.20;80.10;10.70;98228.00;;;;5080992;28;20180;-86
2021/12/16 09:18:18;;;;;;;4.30;3.90;;;10.20;80.00;10.70;98229.00;;;;5092221;28;20250;-86
2021/12/16 09:20:47;;;;;;;8.27;4.73;;;10.30;80.00;10.70;98231.00;;;;5086795;28;20195;-86
2021/12/16 09:23:16;;;;;;;4.97;4.50;;;10.30;80.00;10.80;98225.00;;;;5080886;28;20204;-86
2021/12/16 09:25:47;;;;;;;5.03;3.87;;;10.40;80.00;10.80;98234.00;;;;5088359;28;20285;-86
2021/12/16 09:28:19;;;;;;;4.70;3.83;;;10.40;79.80;10.80;98235.00;;;;5094506;28;20684;-86
2021/12/16 09:30:49;;;;;;;10.87;4.40;;;10.40;79.70;10.80;98244.00;;;;5091925;28;20662;-85
2021/12/16 09:33:19;;;;;;;4.67;4.17;;;10.40;79.80;10.80;98227.00;;;;5092443;28;20264;-85
2021/12/16 09:35:52;;;;;;;5.27;3.50;;;10.40;79.70;10.90;98235.00;;;;5091885;28;20195;-85
2021/12/16 09:38:22;;;;;;;4.30;3.67;;;10.30;79.70;10.90;98234.00;;;;5084448;28;20231;-85
2021/12/16 09:40:56;;;;;;;4.37;3.97;;;10.50;80.30;11.00;98235.00;;;;5084921;28;20192;-86
2021/12/16 09:43:27;;;;;;;4.87;4.37;;;10.50;80.40;11.00;98240.00;;;;5092361;28;20234;-86
2021/12/16 09:45:58;;;;;;;4.90;4.40;;;10.50;80.30;11.10;98235.00;;;;5091980;28;20195;-86
2021/12/16 09:48:26;;;;;;;7.43;4.27;;;10.50;80.30;11.10;98241.00;;;;5089457;28;20311;-85
2021/12/16 09:50:55;;;;;;;5.57;4.27;;;10.60;80.20;11.10;98238.00;;;;5082013;28;20198;-85
2021/12/16 09:53:23;;;;;;;5.37;4.17;;;10.60;80.10;11.10;98247.00;;;;5082779;28;20272;-86
2021/12/16 09:55:58;;;;;;;6.37;4.73;;;10.80;79.90;11.10;98238.00;;;;5090362;28;20274;-85
2021/12/16 09:58:27;;;;;;;5.53;4.60;;;10.60;79.40;11.10;98238.00;;;;5092922;28;20246;-85
2021/12/16 10:00:56;;;;;;;5.03;4.27;;;10.70;79.40;11.10;98231.00;;;;5092447;28;20258;-85
2021/12/16 10:03:26;;;;;;;8.40;4.70;;;10.60;79.20;11.10;98235.00;;;;5092361;28;20199;-86
2021/12/16 10:05:55;;;;;;;7.40;5.10;;;10.80;79.70;11.10;98230.00;;;;5086256;28;20298;-85
2021/12/16 10:08:23;;;;;;;11.03;5.60;;;10.70;79.50;11.10;98223.00;;;;5083346;28;20299;-85
2021/12/16 10:10:50;;;;;;;5.93;5.30;;;10.70;79.30;11.10;98230.00;;;;5084641;28;20197;-85
2021/12/16 10:13:23;;;;;;;7.10;5.17;;;10.70;79.50;11.20;98235.00;;;;5086871;28;20571;-85
2021/12/16 10:18:37;;;;;;;4.70;4.20;;;10.80;79.70;11.30;98226.00;;;;5081373;28;20746;-86
2021/12/16 10:21:10;;;;;;;4.70;4.23;;;10.80;79.60;11.30;98230.00;;;;5074755;28;20235;-85
2021/12/16 10:23:42;;;;;;;4.40;4.00;;;10.80;79.40;11.30;98224.00;;;;5089496;28;20241;-86
2021/12/16 10:26:16;;;;;;;4.53;3.83;;;10.90;79.10;11.30;98229.00;;;;5079449;28;20196;-86
2021/12/16 10:28:48;;;;;;;6.77;3.70;;;10.90;79.10;11.30;98227.00;;;;5091392;28;20301;-86
2021/12/16 10:31:23;;;;;;;4.10;3.70;;;10.90;78.90;11.30;98219.00;;;;5092471;28;20294;-86
2021/12/16 10:34:10;;;;;;;7.77;4.37;;;11.00;78.70;11.40;98222.00;;;;5088557;28;20234;-86
2021/12/16 10:36:46;;;;;;;4.27;3.63;;;11.00;78.50;11.40;98219.00;;;;5081629;28;20279;-86
2021/12/16 10:39:20;;;;;;;4.50;4.10;;;11.00;78.50;11.40;98208.00;;;;5082506;28;20461;-86
2021/12/16 10:41:52;;;;;;;5.87;4.27;;;11.00;78.50;11.40;98204.00;;;;5071808;28;20186;-86
2021/12/16 10:44:22;;;;;;;10.23;4.00;;;11.00;78.80;11.40;98193.00;;;;5072535;28;20184;-86
2021/12/16 10:46:59;;;;;;;9.43;4.60;;;11.00;78.70;11.40;98206.00;;;;5085852;28;20286;-86
2021/12/16 10:49:32;;;;;;;5.53;4.27;;;11.00;78.70;11.40;98193.00;;;;5086657;22;20304;-83
2021/12/16 10:52:05;;;;;;;4.57;3.73;;;11.00;78.50;11.40;98197.00;;;;5061952;28;20197;-82
2021/12/16 10:54:37;;;;;;;7.30;4.10;;;11.00;78.30;11.30;98198.00;;;;5053450;28;20241;-84
2021/12/16 10:57:09;;;;;;;6.67;4.40;;;10.90;78.40;11.30;98205.00;;;;5031367;28;20623;-87
2021/12/16 11:02:16;;;;;;;6.30;3.77;;;10.90;78.30;11.30;98205.00;;;;5031349;28;20206;-85
2021/12/16 11:04:48;;;;;;;4.20;3.80;;;10.90;77.90;11.30;98222.00;;;;5030228;28;20289;-85
2021/12/16 11:07:24;;;;;;;5.67;4.20;;;10.90;78.00;11.30;98216.00;;;;5031265;28;20217;-85
2021/12/16 11:10:05;;;;;;;10.77;4.73;;;10.90;77.90;11.30;98217.00;;;;5033441;28;20209;-85
2021/12/16 11:12:49;;;;;;;10.97;3.87;;;10.90;77.70;11.30;98213.00;;;;5033934;28;20232;-85
2021/12/16 11:15:27;;;;;;;8.67;4.20;;;10.90;77.30;11.30;98218.00;;;;5025297;28;20198;-85
2021/12/16 11:17:59;;;;;;;4.20;3.80;;;10.90;77.80;11.30;98205.00;;;;5027783;28;20181;-85
2021/12/16 11:20:36;;;;;;;4.03;3.60;;;10.90;77.70;11.30;98209.00;;;;5033098;28;20228;-85
2021/12/16 11:23:09;;;;;;;4.10;3.67;;;10.90;77.30;11.30;98207.00;;;;5029018;28;20256;-85
2021/12/16 11:25:40;;;;;;;4.20;3.80;;;10.90;77.30;11.30;98203.00;;;;5026214;28;20219;-85
2021/12/16 11:28:18;;;;;;;6.10;4.37;;;11.00;77.80;11.30;98201.00;;;;5014876;28;20205;-86
2021/12/16 11:30:53;;;;;;;5.33;4.37;;;10.90;77.70;11.30;98197.00;;;;5021928;28;20213;-86
2021/12/16 11:33:42;;;;;;;4.67;4.17;;;10.90;77.50;11.30;98198.00;;;;5031003;28;20764;-85
2021/12/16 11:36:14;;;;;;;3.87;3.37;;;10.90;76.50;11.30;98198.00;;;;5031567;28;20622;-85
2021/12/16 11:38:47;;;;;;;5.13;3.83;;;10.90;77.30;11.30;98198.00;;;;5027446;28;20228;-86
2021/12/16 11:41:24;;;;;;;4.60;3.63;;;11.00;77.60;11.30;98194.00;;;;5017764;28;20217;-86
2021/12/16 11:44:09;;;;;;;4.50;4.10;;;10.90;77.70;11.30;98191.00;;;;5021672;28;20583;-86
2021/12/16 11:46:42;;;;;;;7.43;3.77;;;10.90;77.70;11.30;98190.00;;;;5030562;28;20224;-86
2021/12/16 11:49:15;;;;;;;7.27;4.03;;;10.90;77.90;11.40;98195.00;;;;5033064;28;20193;-86
2021/12/16 11:51:46;;;;;;;8.90;4.33;;;11.00;78.00;11.40;98199.00;;;;5026435;28;20624;-86
2021/12/16 11:54:23;;;;;;;6.37;3.73;;;11.00;78.10;11.40;98190.00;;;;5031729;28;20260;-86
2021/12/16 11:56:56;;;;;;;4.20;3.80;;;11.00;77.70;11.40;98199.00;;;;5033980;28;20198;-86
2021/12/16 11:59:30;;;;;;;4.20;3.80;;;11.00;77.70;11.40;98204.00;;;;5034512;28;20186;-86
2021/12/16 12:02:00;;;;;;;4.10;3.50;;;11.00;77.70;11.40;98206.00;;;;5025154;28;20233;-85
2021/12/16 12:04:33;;;;;;;4.70;3.80;;;11.00;77.60;11.40;98210.00;;;;5025077;28;20205;-86
2021/12/16 12:07:10;;;;;;;4.17;3.87;;;11.00;77.70;11.40;98214.00;;;;5036471;28;20315;-85
2021/12/16 12:09:43;;;;;;;3.97;3.57;;;11.00;77.70;11.50;98204.00;;;;5022550;28;20288;-85
2021/12/16 12:12:12;;;;;;;4.63;4.13;;;11.00;77.60;11.50;98204.00;;;;5036497;28;20197;-87
2021/12/16 12:14:43;;;;;;;5.17;4.50;;;11.10;77.70;11.50;98193.00;;;;5028013;28;20224;-86
2021/12/16 12:17:16;;;;;;;5.67;4.20;;;11.10;77.50;11.50;98198.00;;;;5030627;28;20239;-87
2021/12/16 12:19:48;;;;;;;5.03;4.13;;;11.10;77.60;11.50;98188.00;;;;5036479;28;20198;-86
2021/12/16 12:22:21;;;;;;;6.03;4.27;;;11.10;77.40;11.50;98193.00;;;;5040707;28;20198;-87
2021/12/16 12:24:50;;;;;;;4.20;3.80;;;11.10;77.60;11.50;98197.00;;;;5026814;28;20189;-86
2021/12/16 12:27:22;;;;;;;4.57;4.13;;;11.10;77.20;11.50;98205.00;;;;5034974;28;20204;-86
2021/12/16 12:29:53;;;;;;;4.40;3.77;;;11.10;77.30;11.50;98203.00;;;;5048785;28;20266;-86
2021/12/16 12:32:26;;;;;;;5.33;4.13;;;11.10;77.30;11.50;98208.00;;;;5034535;28;20292;-86
2021/12/16 12:35:01;;;;;;;4.20;3.80;;;11.10;77.40;11.60;98206.00;;;;5033615;28;20190;-86
2021/12/16 12:37:34;;;;;;;4.47;4.07;;;11.30;77.30;11.50;98210.00;;;;5026990;28;20195;-86
2021/12/16 12:40:08;;;;;;;3.80;3.50;;;11.10;77.00;11.50;98209.00;;;;5028977;28;20294;-86
2021/12/16 12:42:37;;;;;;;5.63;3.67;;;11.20;76.70;11.50;98206.00;;;;5025952;28;20200;-86
2021/12/16 12:45:08;;;;;;;3.83;3.53;;;11.20;77.50;11.50;98218.00;;;;5024510;28;20201;-86
2021/12/16 12:47:39;;;;;;;4.10;3.70;;;11.20;76.80;11.50;98207.00;;;;5030091;28;20682;-86
2021/12/16 12:50:11;;;;;;;4.07;3.67;;;11.30;77.00;11.50;98198.00;;;;5032429;28;20236;-86
2021/12/16 12:52:39;;;;;;;3.93;3.60;;;11.20;76.90;11.60;98210.00;;;;5018824;28;20197;-85
2021/12/16 12:55:13;;;;;;;3.97;3.50;;;11.20;77.20;11.60;98203.00;;;;5032634;28;20213;-86
2021/12/16 12:57:44;;;;;;;5.03;4.00;;;11.20;77.20;11.70;98208.00;;;;5037830;28;20209;-86
2021/12/16 13:00:28;;;;;;;5.83;4.50;;;11.20;77.30;11.70;98212.00;;;;5021514;28;20218;-87
2021/12/16 13:03:01;;;;;;;7.47;3.97;;;11.30;77.10;11.70;98212.00;;;;5030524;28;20212;-87
2021/12/16 13:05:37;;;;;;;4.33;3.70;;;11.40;77.40;11.70;98213.00;;;;5033447;28;20281;-87
2021/12/16 13:08:09;;;;;;;4.13;3.73;;;11.30;77.00;11.70;98203.00;;;;5036543;28;20201;-87